createdAt,value
2023-04-30T00:02:23.877Z,21.30
2023-04-30T00:04:51.340Z,21.30
2023-04-30T00:07:18.489Z,21.28
2023-04-30T00:09:45.657Z,21.28
2023-04-30T00:12:12.826Z,21.27
2023-04-30T00:14:39.990Z,21.28
2023-04-30T00:17:07.259Z,21.28
2023-04-30T00:19:34.595Z,21.28
2023-04-30T00:22:01.751Z,21.25
2023-04-30T00:24:29.429Z,21.26
2023-04-30T00:26:56.574Z,21.26
2023-04-30T00:29:23.774Z,21.25
2023-04-30T00:31:51.052Z,21.26
2023-04-30T00:34:18.358Z,21.26
2023-04-30T00:36:45.639Z,21.25
2023-04-30T00:39:12.849Z,21.25
2023-04-30T00:41:40.602Z,21.24
2023-04-30T00:44:08.281Z,21.23
2023-04-30T00:46:35.650Z,21.23
2023-04-30T00:49:04.963Z,21.22
2023-04-30T00:51:33.161Z,21.23
2023-04-30T00:54:03.130Z,21.24
2023-04-30T00:56:31.323Z,21.23
2023-04-30T00:58:59.110Z,21.23
2023-04-30T01:01:28.918Z,21.23
2023-04-30T01:03:56.247Z,21.22
2023-04-30T01:06:23.840Z,21.21
2023-04-30T01:08:51.363Z,21.20
2023-04-30T01:11:40.172Z,21.20
2023-04-30T01:14:25.386Z,21.20
2023-04-30T01:17:06.265Z,21.20
2023-04-30T01:19:43.607Z,21.18
2023-04-30T01:22:28.281Z,21.18
2023-04-30T01:25:16.983Z,21.18
2023-04-30T01:28:06.929Z,21.17
2023-04-30T01:30:35.311Z,21.17
2023-04-30T01:33:03.376Z,21.17
2023-04-30T01:35:57.682Z,21.15
2023-04-30T01:38:46.879Z,21.16
2023-04-30T01:41:34.571Z,21.17
2023-04-30T01:44:25.624Z,21.14
2023-04-30T01:47:05.423Z,21.15
2023-04-30T01:49:48.975Z,21.15
2023-04-30T01:52:22.253Z,21.15
2023-04-30T01:55:00.895Z,21.14
2023-04-30T01:57:38.847Z,21.14
2023-04-30T02:00:10.850Z,21.13
2023-04-30T02:02:38.193Z,21.14
2023-04-30T02:05:05.633Z,21.13
2023-04-30T02:07:41.713Z,21.12
2023-04-30T02:10:09.818Z,21.12
2023-04-30T02:12:37.019Z,21.12
2023-04-30T02:15:06.233Z,21.11
2023-04-30T02:17:34.012Z,21.10
2023-04-30T02:20:01.379Z,21.09
2023-04-30T02:22:28.674Z,21.09
2023-04-30T02:24:57.207Z,21.11
2023-04-30T02:27:26.095Z,21.10
2023-04-30T02:29:53.777Z,21.10
2023-04-30T02:32:21.622Z,21.08
2023-04-30T02:34:48.831Z,21.10
2023-04-30T02:37:16.085Z,21.09
2023-04-30T02:39:43.324Z,21.09
2023-04-30T02:42:11.181Z,21.06
2023-04-30T02:44:38.342Z,21.08
2023-04-30T02:47:05.749Z,21.08
2023-04-30T02:49:32.891Z,21.08
2023-04-30T02:52:00.160Z,21.07
2023-04-30T02:54:27.437Z,21.06
2023-04-30T02:56:54.683Z,21.04
2023-04-30T02:59:21.857Z,21.06
2023-04-30T03:01:49.374Z,21.05
2023-04-30T03:04:16.691Z,21.06
2023-04-30T03:06:43.957Z,21.05
2023-04-30T03:09:11.281Z,21.05
2023-04-30T03:11:38.485Z,21.04
2023-04-30T03:14:05.748Z,21.03
2023-04-30T03:16:33.031Z,21.03
2023-04-30T03:19:00.312Z,21.01
2023-04-30T03:21:27.505Z,21.02
2023-04-30T03:23:54.699Z,21.02
2023-04-30T03:26:22.108Z,21.04
2023-04-30T03:28:49.538Z,21.01
2023-04-30T03:31:16.997Z,21.00
2023-04-30T03:33:44.312Z,21.01
2023-04-30T03:36:11.735Z,21.00
2023-04-30T03:38:38.990Z,21.00
2023-04-30T03:41:06.266Z,20.98
2023-04-30T03:43:33.577Z,20.97
2023-04-30T03:46:00.796Z,20.98
2023-04-30T03:48:28.019Z,21.00
2023-04-30T03:50:55.352Z,20.98
2023-04-30T03:53:22.582Z,20.98
2023-04-30T03:55:50.430Z,20.99
2023-04-30T03:58:17.606Z,20.97
2023-04-30T04:00:45.797Z,20.97
2023-04-30T04:03:13.436Z,20.98
2023-04-30T04:05:41.169Z,20.95
2023-04-30T04:08:08.571Z,20.95
2023-04-30T04:10:36.158Z,20.95
2023-04-30T04:13:03.470Z,20.95
2023-04-30T04:15:30.983Z,20.93
2023-04-30T04:17:58.321Z,20.94
2023-04-30T04:20:25.607Z,20.94
2023-04-30T04:22:53.018Z,20.94
2023-04-30T04:25:20.574Z,20.94
2023-04-30T04:27:47.762Z,20.96
2023-04-30T04:30:15.105Z,20.94
2023-04-30T04:32:46.903Z,20.95
2023-04-30T04:35:15.460Z,20.95
2023-04-30T04:37:42.649Z,20.96
2023-04-30T04:40:13.598Z,20.96
2023-04-30T04:42:40.786Z,20.94
2023-04-30T04:45:08.555Z,20.96
2023-04-30T04:47:36.472Z,20.94
2023-04-30T04:50:03.699Z,20.94
2023-04-30T04:52:30.956Z,20.94
2023-04-30T04:54:58.157Z,20.94
2023-04-30T04:57:27.594Z,20.95
2023-04-30T04:59:55.103Z,20.97
2023-04-30T05:02:23.485Z,20.98
2023-04-30T05:04:51.503Z,20.98
2023-04-30T05:07:18.920Z,20.98
2023-04-30T05:09:48.891Z,20.97
2023-04-30T05:12:16.156Z,20.97
2023-04-30T05:14:43.945Z,20.99
2023-04-30T05:17:11.158Z,20.99
2023-04-30T05:19:38.333Z,21.01
2023-04-30T05:22:05.767Z,21.02
2023-04-30T05:24:32.958Z,21.01
2023-04-30T05:27:00.308Z,21.02
2023-04-30T05:29:27.530Z,21.03
2023-04-30T05:31:54.908Z,21.03
2023-04-30T05:34:22.208Z,21.02
2023-04-30T05:36:49.736Z,21.03
2023-04-30T05:39:17.012Z,21.04
2023-04-30T05:41:44.228Z,21.04
2023-04-30T05:44:11.406Z,21.04
2023-04-30T05:46:38.594Z,21.04
2023-04-30T05:49:05.775Z,21.04
2023-04-30T05:51:33.023Z,21.06
2023-04-30T05:54:00.468Z,21.06
2023-04-30T05:56:27.707Z,21.04
2023-04-30T05:58:54.911Z,21.05
2023-04-30T06:01:23.132Z,21.08
2023-04-30T06:03:50.500Z,21.08
2023-04-30T06:06:17.772Z,21.07
2023-04-30T06:08:45.642Z,21.09
2023-04-30T06:11:13.699Z,21.11
2023-04-30T06:13:41.283Z,21.13
2023-04-30T06:16:08.896Z,21.18
2023-04-30T06:18:36.308Z,21.25
2023-04-30T06:21:03.529Z,21.35
2023-04-30T06:23:30.713Z,21.52
2023-04-30T06:25:58.073Z,21.65
2023-04-30T06:28:25.457Z,21.75
2023-04-30T06:30:54.259Z,21.81
2023-04-30T06:33:21.638Z,21.87
2023-04-30T06:35:50.866Z,21.89
2023-04-30T06:38:18.285Z,21.94
2023-04-30T06:40:45.468Z,21.99
2023-04-30T06:43:12.645Z,22.03
2023-04-30T06:45:40.490Z,22.06
2023-04-30T06:48:08.025Z,22.07
2023-04-30T06:50:35.400Z,22.09
2023-04-30T06:53:02.886Z,22.13
2023-04-30T06:55:30.242Z,22.14
2023-04-30T06:57:57.979Z,22.11
2023-04-30T07:00:25.314Z,22.07
2023-04-30T07:02:52.677Z,22.01
2023-04-30T07:05:19.975Z,21.98
2023-04-30T07:07:47.167Z,21.96
2023-04-30T07:10:14.460Z,21.92
2023-04-30T07:12:41.666Z,21.89
2023-04-30T07:15:09.206Z,21.88
2023-04-30T07:17:37.139Z,21.96
2023-04-30T07:20:05.494Z,22.04
2023-04-30T07:22:32.804Z,22.07
2023-04-30T07:25:00.684Z,22.07
2023-04-30T07:27:28.297Z,22.08
2023-04-30T07:29:56.376Z,22.09
2023-04-30T07:32:26.976Z,22.14
2023-04-30T07:34:54.479Z,22.13
2023-04-30T07:37:21.970Z,22.05
2023-04-30T07:39:49.209Z,21.98
2023-04-30T07:42:16.616Z,21.96
2023-04-30T07:44:43.989Z,21.92
2023-04-30T07:47:11.196Z,21.89
2023-04-30T07:49:38.438Z,21.89
2023-04-30T07:52:06.235Z,21.90
2023-04-30T07:54:36.413Z,21.89
2023-04-30T07:57:03.720Z,21.89
2023-04-30T07:59:31.074Z,21.88
2023-04-30T08:01:58.468Z,21.87
2023-04-30T08:04:25.853Z,21.85
2023-04-30T08:06:53.274Z,21.83
2023-04-30T08:09:20.547Z,21.85
2023-04-30T08:11:47.792Z,21.83
2023-04-30T08:14:14.984Z,21.82
2023-04-30T08:16:42.180Z,21.84
2023-04-30T08:19:09.364Z,21.83
2023-04-30T08:21:36.581Z,21.82
2023-04-30T08:24:03.918Z,21.78
2023-04-30T08:26:31.192Z,21.83
2023-04-30T08:28:58.390Z,21.82
2023-04-30T08:31:25.626Z,21.80
2023-04-30T08:33:52.918Z,21.79
2023-04-30T08:36:20.348Z,21.78
2023-04-30T08:38:47.777Z,21.75
2023-04-30T08:41:19.671Z,21.74
2023-04-30T08:43:49.512Z,21.75
2023-04-30T08:46:17.942Z,21.78
2023-04-30T08:48:45.753Z,21.72
2023-04-30T08:51:12.968Z,21.73
2023-04-30T08:53:41.145Z,21.72
2023-04-30T08:56:11.232Z,21.56
2023-04-30T08:58:38.487Z,21.42
2023-04-30T09:01:09.091Z,21.34
2023-04-30T09:03:36.763Z,21.28
2023-04-30T09:06:04.125Z,21.21
2023-04-30T09:08:44.206Z,21.17
2023-04-30T09:11:22.807Z,21.24
2023-04-30T09:13:54.938Z,21.29
2023-04-30T09:16:23.522Z,21.31
2023-04-30T09:18:53.637Z,21.27
2023-04-30T09:21:34.751Z,21.28
2023-04-30T09:24:04.189Z,21.33
2023-04-30T09:26:36.436Z,21.34
2023-04-30T09:29:07.984Z,21.34
2023-04-30T09:31:36.458Z,21.32
2023-04-30T09:34:04.471Z,21.32
2023-04-30T09:36:31.907Z,21.34
2023-04-30T09:39:15.501Z,21.34
2023-04-30T09:41:43.755Z,21.33
2023-04-30T09:44:28.440Z,21.33
2023-04-30T09:46:57.949Z,21.32
2023-04-30T09:49:26.435Z,21.31
2023-04-30T09:52:01.485Z,21.31
2023-04-30T09:54:32.830Z,21.31
2023-04-30T09:57:02.607Z,21.36
2023-04-30T09:59:32.009Z,21.37
2023-04-30T10:02:03.316Z,21.42
2023-04-30T10:04:36.496Z,21.44
2023-04-30T10:07:17.108Z,21.49
2023-04-30T10:09:51.313Z,21.49
2023-04-30T10:12:40.616Z,21.49
2023-04-30T10:15:14.354Z,21.51
2023-04-30T10:17:44.433Z,21.51
2023-04-30T10:20:13.280Z,21.53
2023-04-30T10:22:41.899Z,21.54
2023-04-30T10:25:13.282Z,21.56
2023-04-30T10:27:40.789Z,21.57
2023-04-30T10:30:12.040Z,21.56
2023-04-30T10:32:58.674Z,21.57
2023-04-30T10:35:35.720Z,21.55
2023-04-30T10:38:23.993Z,21.61
2023-04-30T10:41:00.184Z,21.58
2023-04-30T10:43:30.111Z,21.55
2023-04-30T10:46:00.843Z,21.51
2023-04-30T10:48:30.427Z,21.52
2023-04-30T10:51:00.777Z,21.59
2023-04-30T10:53:31.884Z,21.63
2023-04-30T10:56:08.706Z,21.59
2023-04-30T10:58:40.248Z,21.63
2023-04-30T11:01:13.690Z,21.71
2023-04-30T11:03:43.587Z,21.78
2023-04-30T11:06:15.585Z,21.83
2023-04-30T11:08:46.430Z,21.82
2023-04-30T11:11:20.874Z,21.81
2023-04-30T11:13:53.526Z,21.82
2023-04-30T11:16:20.848Z,21.80
2023-04-30T11:18:48.313Z,21.68
2023-04-30T11:21:15.502Z,21.64
2023-04-30T11:23:44.341Z,21.63
2023-04-30T11:26:11.712Z,21.61
2023-04-30T11:28:39.133Z,21.57
2023-04-30T11:31:06.580Z,21.58
2023-04-30T11:33:35.231Z,21.65
2023-04-30T11:36:03.233Z,21.66
2023-04-30T11:38:34.427Z,21.69
2023-04-30T11:41:02.603Z,21.70
2023-04-30T11:43:31.895Z,21.70
2023-04-30T11:46:29.300Z,21.69
2023-04-30T11:48:58.587Z,21.71
2023-04-30T11:51:26.798Z,21.72
2023-04-30T11:53:54.453Z,21.72
2023-04-30T11:56:25.601Z,21.73
2023-04-30T11:58:55.766Z,21.73
2023-04-30T12:01:26.008Z,21.74
2023-04-30T12:03:55.233Z,21.73
2023-04-30T12:06:27.632Z,21.73
2023-04-30T12:08:56.165Z,21.74
2023-04-30T12:11:27.875Z,21.74
2023-04-30T12:14:11.139Z,21.76
2023-04-30T12:16:49.211Z,21.78
2023-04-30T12:19:17.550Z,21.76
2023-04-30T12:21:47.153Z,21.76
2023-04-30T12:24:15.805Z,21.75
2023-04-30T12:26:43.028Z,21.78
2023-04-30T12:29:12.699Z,21.79
2023-04-30T12:31:42.487Z,21.79
2023-04-30T12:34:11.495Z,21.79
2023-04-30T12:36:42.444Z,21.80
2023-04-30T12:39:10.322Z,21.78
2023-04-30T12:41:41.761Z,21.80
2023-04-30T12:44:16.086Z,21.79
2023-04-30T12:46:43.739Z,21.79
2023-04-30T12:49:11.307Z,21.80
2023-04-30T12:51:41.588Z,21.81
2023-04-30T12:54:08.879Z,21.80
2023-04-30T12:56:35.973Z,21.81
2023-04-30T12:59:03.122Z,21.83
2023-04-30T13:01:30.307Z,21.82
2023-04-30T13:03:57.546Z,21.83
2023-04-30T13:06:29.172Z,21.84
2023-04-30T13:08:58.945Z,21.85
2023-04-30T13:11:27.215Z,21.85
2023-04-30T13:13:55.728Z,21.85
2023-04-30T13:16:24.735Z,21.87
2023-04-30T13:18:52.845Z,21.87
2023-04-30T13:21:21.091Z,21.87
2023-04-30T13:23:52.548Z,21.88
2023-04-30T13:26:21.830Z,21.88
2023-04-30T13:28:50.053Z,21.89
2023-04-30T13:31:17.231Z,21.89
2023-04-30T13:33:44.420Z,21.88
2023-04-30T13:36:11.811Z,21.90
2023-04-30T13:38:39.545Z,21.91
2023-04-30T13:41:06.758Z,21.90
2023-04-30T13:43:33.966Z,21.91
2023-04-30T13:46:01.496Z,21.92
2023-04-30T13:48:28.633Z,21.91
2023-04-30T13:50:55.760Z,21.92
2023-04-30T13:53:22.900Z,21.94
2023-04-30T13:55:50.004Z,21.94
2023-04-30T13:58:17.587Z,21.94
2023-04-30T14:00:44.807Z,21.94
2023-04-30T14:03:12.538Z,21.94
2023-04-30T14:05:40.043Z,21.95
2023-04-30T14:08:07.217Z,21.96
2023-04-30T14:10:34.362Z,21.97
2023-04-30T14:13:01.481Z,21.99
2023-04-30T14:15:30.629Z,21.98
2023-04-30T14:17:58.037Z,22.00
2023-04-30T14:20:25.685Z,22.00
2023-04-30T14:22:52.998Z,22.00
2023-04-30T14:25:20.720Z,22.01
2023-04-30T14:27:48.171Z,22.00
2023-04-30T14:30:15.654Z,22.00
2023-04-30T14:32:43.651Z,21.97
2023-04-30T14:35:11.376Z,21.94
2023-04-30T14:37:38.621Z,21.95
2023-04-30T14:40:07.873Z,21.97
2023-04-30T14:42:35.055Z,21.89
2023-04-30T14:45:02.234Z,21.79
2023-04-30T14:47:29.385Z,21.74
2023-04-30T14:49:58.797Z,21.71
2023-04-30T14:52:26.152Z,21.68
2023-04-30T14:54:53.454Z,21.62
2023-04-30T14:57:20.806Z,21.59
2023-04-30T14:59:48.145Z,21.58
2023-04-30T15:02:15.524Z,21.56
2023-04-30T15:04:46.032Z,21.56
2023-04-30T15:07:13.369Z,21.54
2023-04-30T15:09:40.838Z,21.51
2023-04-30T15:12:08.026Z,21.45
2023-04-30T15:14:35.247Z,21.43
2023-04-30T15:17:02.433Z,21.43
2023-04-30T15:19:29.753Z,21.41
2023-04-30T15:21:56.938Z,21.38
2023-04-30T15:24:24.084Z,21.39
2023-04-30T15:26:52.570Z,21.39
2023-04-30T15:29:19.680Z,21.41
2023-04-30T15:31:47.091Z,21.39
2023-04-30T15:34:14.242Z,21.38
2023-04-30T15:36:41.426Z,21.36
2023-04-30T15:39:08.577Z,21.33
2023-04-30T15:41:35.874Z,21.32
2023-04-30T15:44:02.987Z,21.32
2023-04-30T15:46:30.315Z,21.32
2023-04-30T15:48:57.782Z,21.32
2023-04-30T15:51:24.987Z,21.30
2023-04-30T15:53:52.385Z,21.29
2023-04-30T15:56:20.336Z,21.29
2023-04-30T15:58:47.495Z,21.28
2023-04-30T16:01:14.795Z,21.30
2023-04-30T16:03:42.297Z,21.30
2023-04-30T16:06:09.808Z,21.29
2023-04-30T16:08:37.059Z,21.32
2023-04-30T16:11:04.161Z,21.34
2023-04-30T16:13:31.286Z,21.35
2023-04-30T16:15:58.631Z,21.37
2023-04-30T16:18:25.849Z,21.32
2023-04-30T16:20:53.446Z,21.31
2023-04-30T16:23:20.821Z,21.35
2023-04-30T16:25:48.294Z,21.33
2023-04-30T16:28:15.607Z,21.30
2023-04-30T16:30:42.789Z,21.32
2023-04-30T16:33:09.971Z,21.38
2023-04-30T16:35:37.158Z,21.49
2023-04-30T16:38:04.462Z,21.53
2023-04-30T16:40:31.643Z,21.55
2023-04-30T16:42:59.674Z,21.57
2023-04-30T16:45:27.223Z,21.60
2023-04-30T16:47:54.595Z,21.61
2023-04-30T16:50:24.168Z,21.67
2023-04-30T16:52:51.310Z,21.69
2023-04-30T16:55:18.443Z,21.70
2023-04-30T16:57:46.146Z,21.72
2023-04-30T17:00:14.303Z,21.73
2023-04-30T17:02:42.493Z,21.73
2023-04-30T17:05:09.855Z,21.74
2023-04-30T17:07:37.339Z,21.76
2023-04-30T17:10:05.108Z,21.76
2023-04-30T17:12:32.274Z,21.76
2023-04-30T17:14:59.407Z,21.78
2023-04-30T17:17:26.684Z,21.80
2023-04-30T17:19:53.990Z,21.80
2023-04-30T17:22:21.317Z,21.83
2023-04-30T17:24:48.519Z,21.83
2023-04-30T17:27:15.818Z,21.84
2023-04-30T17:29:43.012Z,21.85
2023-04-30T17:32:11.201Z,21.85
2023-04-30T17:34:38.432Z,21.84
2023-04-30T17:37:05.873Z,21.85
2023-04-30T17:39:33.063Z,21.85
2023-04-30T17:42:00.815Z,21.83
2023-04-30T17:44:28.264Z,21.83
2023-04-30T17:46:55.594Z,21.84
2023-04-30T17:49:23.026Z,21.85
2023-04-30T17:51:50.360Z,21.84
2023-04-30T17:54:17.604Z,21.85
2023-04-30T17:56:44.870Z,21.86
2023-04-30T17:59:12.530Z,21.85
2023-04-30T18:01:40.388Z,21.85
2023-04-30T18:04:08.087Z,21.86
2023-04-30T18:06:35.519Z,21.86
2023-04-30T18:09:04.138Z,21.86
2023-04-30T18:11:31.434Z,21.88
2023-04-30T18:13:58.722Z,21.86
2023-04-30T18:16:25.976Z,21.86
2023-04-30T18:18:53.116Z,21.85
2023-04-30T18:21:20.373Z,21.85
2023-04-30T18:23:48.015Z,21.85
2023-04-30T18:26:15.149Z,21.85
2023-04-30T18:28:42.441Z,21.84
2023-04-30T18:31:11.523Z,21.83
2023-04-30T18:33:38.777Z,21.84
2023-04-30T18:36:07.449Z,21.82
2023-04-30T18:38:34.898Z,21.82
2023-04-30T18:41:02.332Z,21.81
2023-04-30T18:43:29.462Z,21.81
2023-04-30T18:45:56.778Z,21.81
2023-04-30T18:48:24.149Z,21.80
2023-04-30T18:50:51.470Z,21.79
2023-04-30T18:53:18.752Z,21.79
2023-04-30T18:55:46.038Z,21.78
2023-04-30T18:58:13.358Z,21.80
2023-04-30T19:00:43.677Z,21.80
2023-04-30T19:03:10.990Z,21.80
2023-04-30T19:05:38.246Z,21.80
2023-04-30T19:08:05.438Z,21.80
2023-04-30T19:10:33.579Z,21.77
2023-04-30T19:13:00.807Z,21.78
2023-04-30T19:15:29.720Z,21.78
2023-04-30T19:17:57.817Z,21.78
2023-04-30T19:20:25.012Z,21.78
2023-04-30T19:22:52.336Z,21.77
2023-04-30T19:25:19.727Z,21.76
2023-04-30T19:27:46.903Z,21.77
2023-04-30T19:30:14.568Z,21.77
2023-04-30T19:32:41.799Z,21.75
2023-04-30T19:35:09.007Z,21.75
2023-04-30T19:37:36.706Z,21.75
2023-04-30T19:40:07.315Z,21.73
2023-04-30T19:42:34.432Z,21.73
2023-04-30T19:45:01.570Z,21.72
2023-04-30T19:47:28.738Z,21.71
2023-04-30T19:49:56.076Z,21.71
2023-04-30T19:52:23.369Z,21.71
2023-04-30T19:54:50.540Z,21.69
2023-04-30T19:57:17.750Z,21.70
2023-04-30T19:59:47.096Z,21.70
2023-04-30T20:02:14.586Z,21.69
2023-04-30T20:04:41.837Z,21.69
2023-04-30T20:07:09.083Z,21.68
2023-04-30T20:09:37.298Z,21.70
2023-04-30T20:12:04.827Z,21.66
2023-04-30T20:14:31.938Z,21.69
2023-04-30T20:16:59.227Z,21.70
2023-04-30T20:19:26.603Z,21.68
2023-04-30T20:21:54.061Z,21.50
2023-04-30T20:24:21.986Z,21.40
2023-04-30T20:26:49.223Z,21.35
2023-04-30T20:29:18.463Z,21.39
2023-04-30T20:31:46.587Z,21.44
2023-04-30T20:34:13.769Z,21.49
2023-04-30T20:36:40.934Z,21.50
2023-04-30T20:39:08.725Z,21.47
2023-04-30T20:41:36.146Z,21.43
2023-04-30T20:44:03.314Z,21.44
2023-04-30T20:46:32.292Z,21.45
2023-04-30T20:49:04.220Z,21.44
2023-04-30T20:51:31.420Z,21.46
2023-04-30T20:54:00.330Z,21.45
2023-04-30T20:56:27.693Z,21.45
2023-04-30T20:58:54.972Z,21.44
2023-04-30T21:01:22.531Z,21.44
2023-04-30T21:03:51.353Z,21.44
2023-04-30T21:06:18.908Z,21.47
2023-04-30T21:08:46.352Z,21.53
2023-04-30T21:11:14.207Z,21.56
2023-04-30T21:13:41.754Z,21.52
2023-04-30T21:16:08.957Z,21.51
2023-04-30T21:18:36.575Z,21.48
2023-04-30T21:21:04.666Z,21.46
2023-04-30T21:23:32.749Z,21.47
2023-04-30T21:25:59.909Z,21.47
2023-04-30T21:28:27.214Z,21.47
2023-04-30T21:30:54.417Z,21.46
2023-04-30T21:33:21.847Z,21.47
2023-04-30T21:35:49.203Z,21.48
2023-04-30T21:38:16.348Z,21.47
2023-04-30T21:40:43.535Z,21.45
2023-04-30T21:43:10.690Z,21.43
2023-04-30T21:45:37.800Z,21.43
2023-04-30T21:48:05.549Z,21.44
2023-04-30T21:50:32.787Z,21.43
2023-04-30T21:52:59.914Z,21.43
2023-04-30T21:55:27.353Z,21.43
2023-04-30T21:57:54.547Z,21.42
2023-04-30T22:00:21.655Z,21.41
2023-04-30T22:02:49.234Z,21.44
2023-04-30T22:05:17.100Z,21.42
2023-04-30T22:07:44.595Z,21.42
2023-04-30T22:10:12.030Z,21.43
2023-04-30T22:12:39.885Z,21.40
2023-04-30T22:15:07.328Z,21.38
2023-04-30T22:17:34.642Z,21.38
2023-04-30T22:20:01.773Z,21.39
2023-04-30T22:22:28.909Z,21.38
2023-04-30T22:24:56.501Z,21.39
2023-04-30T22:27:23.656Z,21.38
2023-04-30T22:29:50.842Z,21.39
2023-04-30T22:32:19.439Z,21.38
2023-04-30T22:34:46.615Z,21.35
2023-04-30T22:37:13.754Z,21.36
2023-04-30T22:39:41.193Z,21.38
2023-04-30T22:42:08.424Z,21.40
2023-04-30T22:44:35.662Z,21.48
2023-04-30T22:47:02.868Z,21.51
2023-04-30T22:49:31.727Z,21.47
2023-04-30T22:51:59.734Z,21.48
2023-04-30T22:54:26.883Z,21.51
2023-04-30T22:56:54.016Z,21.52
2023-04-30T22:59:21.329Z,21.51
2023-04-30T23:01:48.456Z,21.47
2023-04-30T23:04:15.620Z,21.40
2023-04-30T23:06:42.976Z,21.39
2023-04-30T23:09:10.323Z,21.40
2023-04-30T23:11:37.455Z,21.42
2023-04-30T23:14:04.793Z,21.39
2023-04-30T23:16:32.112Z,21.38
2023-04-30T23:18:59.296Z,21.39
2023-04-30T23:21:26.841Z,21.38
2023-04-30T23:23:54.026Z,21.36
2023-04-30T23:26:21.387Z,21.37
2023-04-30T23:28:48.609Z,21.36
2023-04-30T23:31:17.664Z,21.39
2023-04-30T23:33:44.807Z,21.38
2023-04-30T23:36:12.199Z,21.40
2023-04-30T23:38:39.327Z,21.38
2023-04-30T23:41:06.515Z,21.39
2023-04-30T23:43:33.634Z,21.40
2023-04-30T23:46:00.787Z,21.39
2023-04-30T23:48:28.005Z,21.38
2023-04-30T23:51:02.008Z,21.40
2023-04-30T23:53:29.196Z,21.40
2023-04-30T23:55:57.763Z,21.42
2023-04-30T23:58:25.194Z,21.42
